sensor_id;sensor_type;location;lat;lon;timestamp;temperature;humidity
21648;DHT22;10985;54.182;7.890;2023-04-12T00:00:11;7.20;99.90
21648;DHT22;10985;54.182;7.890;2023-04-12T00:02:37;7.20;99.90
21648;DHT22;10985;54.182;7.890;2023-04-12T00:05:03;7.20;99.90
21648;DHT22;10985;54.182;7.890;2023-04-12T00:07:29;7.30;99.90
21648;DHT22;10985;54.182;7.890;2023-04-12T00:09:55;7.20;99.90
21648;DHT22;10985;54.182;7.890;2023-04-12T00:12:21;7.30;99.90
21648;DHT22;10985;54.182;7.890;2023-04-12T00:14:46;7.20;99.90
21648;DHT22;10985;54.182;7.890;2023-04-12T00:17:12;7.20;99.90
21648;DHT22;10985;54.182;7.890;2023-04-12T00:19:38;7.30;99.90
21648;DHT22;10985;54.182;7.890;2023-04-12T00:22:10;7.20;99.90
21648;DHT22;10985;54.182;7.890;2023-04-12T00:24:37;7.30;99.90
21648;DHT22;10985;54.182;7.890;2023-04-12T00:27:03;7.30;99.90
21648;DHT22;10985;54.182;7.890;2023-04-12T00:29:29;7.20;99.90
21648;DHT22;10985;54.182;7.890;2023-04-12T00:31:56;7.20;99.90
21648;DHT22;10985;54.182;7.890;2023-04-12T00:34:22;7.20;99.90
21648;DHT22;10985;54.182;7.890;2023-04-12T00:36:48;7.30;99.90
21648;DHT22;10985;54.182;7.890;2023-04-12T00:39:13;7.20;99.90
21648;DHT22;10985;54.182;7.890;2023-04-12T00:41:39;7.20;99.90
21648;DHT22;10985;54.182;7.890;2023-04-12T00:44:04;7.30;99.90
21648;DHT22;10985;54.182;7.890;2023-04-12T00:46:31;7.30;99.90
21648;DHT22;10985;54.182;7.890;2023-04-12T00:48:57;7.20;99.90
21648;DHT22;10985;54.182;7.890;2023-04-12T00:51:23;7.30;99.90
21648;DHT22;10985;54.182;7.890;2023-04-12T00:53:53;7.30;99.90
21648;DHT22;10985;54.182;7.890;2023-04-12T00:56:19;7.30;99.90
21648;DHT22;10985;54.182;7.890;2023-04-12T00:58:48;7.20;99.90
21648;DHT22;10985;54.182;7.890;2023-04-12T01:01:13;7.30;99.90
21648;DHT22;10985;54.182;7.890;2023-04-12T01:03:41;7.30;99.90
21648;DHT22;10985;54.182;7.890;2023-04-12T01:06:40;7.30;99.90
21648;DHT22;10985;54.182;7.890;2023-04-12T01:11:50;7.30;99.90
21648;DHT22;10985;54.182;7.890;2023-04-12T01:14:28;7.30;99.90
21648;DHT22;10985;54.182;7.890;2023-04-12T01:16:59;7.30;99.90
21648;DHT22;10985;54.182;7.890;2023-04-12T01:19:47;7.30;99.90
21648;DHT22;10985;54.182;7.890;2023-04-12T01:28:04;7.30;99.90
21648;DHT22;10985;54.182;7.890;2023-04-12T01:30:31;7.30;99.90
21648;DHT22;10985;54.182;7.890;2023-04-12T01:32:59;7.30;99.90
21648;DHT22;10985;54.182;7.890;2023-04-12T01:35:29;7.30;99.90
21648;DHT22;10985;54.182;7.890;2023-04-12T01:37:57;7.30;99.90
21648;DHT22;10985;54.182;7.890;2023-04-12T01:40:24;7.30;99.90
21648;DHT22;10985;54.182;7.890;2023-04-12T01:43:06;7.30;99.90
21648;DHT22;10985;54.182;7.890;2023-04-12T01:45:32;7.30;99.90
21648;DHT22;10985;54.182;7.890;2023-04-12T01:47:58;7.30;99.90
21648;DHT22;10985;54.182;7.890;2023-04-12T01:53:10;7.30;99.90
21648;DHT22;10985;54.182;7.890;2023-04-12T01:55:38;7.40;99.90
21648;DHT22;10985;54.182;7.890;2023-04-12T01:58:04;7.30;99.90
21648;DHT22;10985;54.182;7.890;2023-04-12T02:00:31;7.30;99.90
21648;DHT22;10985;54.182;7.890;2023-04-12T02:02:58;7.30;99.90
21648;DHT22;10985;54.182;7.890;2023-04-12T02:05:24;7.30;99.90
21648;DHT22;10985;54.182;7.890;2023-04-12T02:07:50;7.30;99.90
21648;DHT22;10985;54.182;7.890;2023-04-12T02:10:16;7.30;99.90
21648;DHT22;10985;54.182;7.890;2023-04-12T02:12:51;7.30;99.90
21648;DHT22;10985;54.182;7.890;2023-04-12T02:15:18;7.30;99.90
21648;DHT22;10985;54.182;7.890;2023-04-12T02:17:45;7.30;99.90
21648;DHT22;10985;54.182;7.890;2023-04-12T02:20:11;7.30;99.90
21648;DHT22;10985;54.182;7.890;2023-04-12T02:22:37;7.30;99.90
21648;DHT22;10985;54.182;7.890;2023-04-12T02:25:03;7.30;99.90
21648;DHT22;10985;54.182;7.890;2023-04-12T02:27:30;7.30;99.90
21648;DHT22;10985;54.182;7.890;2023-04-12T02:29:56;7.30;99.90
21648;DHT22;10985;54.182;7.890;2023-04-12T02:32:22;7.30;99.90
21648;DHT22;10985;54.182;7.890;2023-04-12T02:34:48;7.30;99.90
21648;DHT22;10985;54.182;7.890;2023-04-12T02:37:16;7.30;99.90
21648;DHT22;10985;54.182;7.890;2023-04-12T02:39:42;7.30;99.90
21648;DHT22;10985;54.182;7.890;2023-04-12T02:42:09;7.30;99.90
21648;DHT22;10985;54.182;7.890;2023-04-12T02:44:34;7.40;99.90
21648;DHT22;10985;54.182;7.890;2023-04-12T02:47:00;7.40;99.90
21648;DHT22;10985;54.182;7.890;2023-04-12T02:49:25;7.40;99.90
21648;DHT22;10985;54.182;7.890;2023-04-12T02:51:51;7.40;99.90
21648;DHT22;10985;54.182;7.890;2023-04-12T02:54:16;7.40;99.90
21648;DHT22;10985;54.182;7.890;2023-04-12T02:56:42;7.40;99.90
21648;DHT22;10985;54.182;7.890;2023-04-12T02:59:09;7.40;99.90
21648;DHT22;10985;54.182;7.890;2023-04-12T03:01:34;7.40;99.90
21648;DHT22;10985;54.182;7.890;2023-04-12T03:04:00;7.40;99.90
21648;DHT22;10985;54.182;7.890;2023-04-12T03:06:26;7.40;99.90
21648;DHT22;10985;54.182;7.890;2023-04-12T03:08:52;7.40;99.90
21648;DHT22;10985;54.182;7.890;2023-04-12T03:11:17;7.40;99.90
21648;DHT22;10985;54.182;7.890;2023-04-12T03:13:42;7.50;99.90
21648;DHT22;10985;54.182;7.890;2023-04-12T03:16:23;7.50;99.90
21648;DHT22;10985;54.182;7.890;2023-04-12T03:18:49;7.50;99.90
21648;DHT22;10985;54.182;7.890;2023-04-12T03:21:15;7.50;99.90
21648;DHT22;10985;54.182;7.890;2023-04-12T03:23:41;7.50;99.90
21648;DHT22;10985;54.182;7.890;2023-04-12T03:26:07;7.50;99.90
21648;DHT22;10985;54.182;7.890;2023-04-12T03:28:33;7.50;99.90
21648;DHT22;10985;54.182;7.890;2023-04-12T03:30:58;7.50;99.90
21648;DHT22;10985;54.182;7.890;2023-04-12T03:33:25;7.50;99.90
21648;DHT22;10985;54.182;7.890;2023-04-12T03:35:51;7.50;99.90
21648;DHT22;10985;54.182;7.890;2023-04-12T03:38:16;7.50;99.90
21648;DHT22;10985;54.182;7.890;2023-04-12T03:40:42;7.50;99.90
21648;DHT22;10985;54.182;7.890;2023-04-12T03:43:07;7.50;99.90
21648;DHT22;10985;54.182;7.890;2023-04-12T03:45:33;7.50;99.90
21648;DHT22;10985;54.182;7.890;2023-04-12T03:47:58;7.50;99.90
21648;DHT22;10985;54.182;7.890;2023-04-12T03:50:24;7.50;99.90
21648;DHT22;10985;54.182;7.890;2023-04-12T03:52:49;7.50;99.90
21648;DHT22;10985;54.182;7.890;2023-04-12T03:55:15;7.50;99.90
21648;DHT22;10985;54.182;7.890;2023-04-12T03:57:42;7.50;99.90
21648;DHT22;10985;54.182;7.890;2023-04-12T04:00:09;7.50;99.90
21648;DHT22;10985;54.182;7.890;2023-04-12T04:02:34;7.50;99.90
21648;DHT22;10985;54.182;7.890;2023-04-12T04:05:01;7.50;99.90
21648;DHT22;10985;54.182;7.890;2023-04-12T04:07:28;7.60;99.90
21648;DHT22;10985;54.182;7.890;2023-04-12T04:09:54;7.50;99.90
21648;DHT22;10985;54.182;7.890;2023-04-12T04:12:19;7.60;99.90
21648;DHT22;10985;54.182;7.890;2023-04-12T04:14:45;7.50;99.90
21648;DHT22;10985;54.182;7.890;2023-04-12T04:17:10;7.60;99.90
21648;DHT22;10985;54.182;7.890;2023-04-12T04:19:36;7.50;99.90
21648;DHT22;10985;54.182;7.890;2023-04-12T04:22:02;7.60;99.90
21648;DHT22;10985;54.182;7.890;2023-04-12T04:24:27;7.50;99.90
21648;DHT22;10985;54.182;7.890;2023-04-12T04:26:54;7.60;99.90
21648;DHT22;10985;54.182;7.890;2023-04-12T04:29:19;7.60;99.90
21648;DHT22;10985;54.182;7.890;2023-04-12T04:31:45;7.60;99.90
21648;DHT22;10985;54.182;7.890;2023-04-12T04:34:10;7.60;99.90
21648;DHT22;10985;54.182;7.890;2023-04-12T04:36:37;7.60;99.90
21648;DHT22;10985;54.182;7.890;2023-04-12T04:39:03;7.60;99.90
21648;DHT22;10985;54.182;7.890;2023-04-12T04:41:30;7.50;99.90
21648;DHT22;10985;54.182;7.890;2023-04-12T04:43:59;7.60;99.90
21648;DHT22;10985;54.182;7.890;2023-04-12T04:46:24;7.50;99.90
21648;DHT22;10985;54.182;7.890;2023-04-12T04:48:50;7.50;99.90
21648;DHT22;10985;54.182;7.890;2023-04-12T04:51:19;7.50;99.90
21648;DHT22;10985;54.182;7.890;2023-04-12T04:53:45;7.50;99.90
21648;DHT22;10985;54.182;7.890;2023-04-12T04:56:10;7.50;99.90
21648;DHT22;10985;54.182;7.890;2023-04-12T04:58:37;7.50;99.90
21648;DHT22;10985;54.182;7.890;2023-04-12T05:01:02;7.50;99.90
21648;DHT22;10985;54.182;7.890;2023-04-12T05:03:28;7.50;99.90
21648;DHT22;10985;54.182;7.890;2023-04-12T05:05:54;7.50;99.90
21648;DHT22;10985;54.182;7.890;2023-04-12T05:08:20;7.50;99.90
21648;DHT22;10985;54.182;7.890;2023-04-12T05:10:53;7.50;99.90
21648;DHT22;10985;54.182;7.890;2023-04-12T05:13:18;7.50;99.90
21648;DHT22;10985;54.182;7.890;2023-04-12T05:15:45;7.60;99.90
21648;DHT22;10985;54.182;7.890;2023-04-12T05:18:12;7.60;99.90
21648;DHT22;10985;54.182;7.890;2023-04-12T05:20:37;7.60;99.90
21648;DHT22;10985;54.182;7.890;2023-04-12T05:23:03;7.60;99.90
21648;DHT22;10985;54.182;7.890;2023-04-12T05:25:29;7.60;99.90
21648;DHT22;10985;54.182;7.890;2023-04-12T05:27:55;7.60;99.90
21648;DHT22;10985;54.182;7.890;2023-04-12T05:30:20;7.60;99.90
21648;DHT22;10985;54.182;7.890;2023-04-12T05:32:46;7.60;99.90
21648;DHT22;10985;54.182;7.890;2023-04-12T05:35:11;7.70;99.90
21648;DHT22;10985;54.182;7.890;2023-04-12T05:37:37;7.70;99.90
21648;DHT22;10985;54.182;7.890;2023-04-12T05:40:03;7.70;99.90
21648;DHT22;10985;54.182;7.890;2023-04-12T05:42:31;7.70;99.90
21648;DHT22;10985;54.182;7.890;2023-04-12T05:44:57;7.70;99.90
21648;DHT22;10985;54.182;7.890;2023-04-12T05:47:22;7.70;99.90
21648;DHT22;10985;54.182;7.890;2023-04-12T05:49:47;7.70;99.90
21648;DHT22;10985;54.182;7.890;2023-04-12T05:52:13;7.70;99.90
21648;DHT22;10985;54.182;7.890;2023-04-12T05:54:38;7.70;99.90
21648;DHT22;10985;54.182;7.890;2023-04-12T05:57:04;7.70;99.90
21648;DHT22;10985;54.182;7.890;2023-04-12T05:59:30;7.70;99.90
21648;DHT22;10985;54.182;7.890;2023-04-12T06:01:55;7.70;99.90
21648;DHT22;10985;54.182;7.890;2023-04-12T06:04:21;7.70;99.90
21648;DHT22;10985;54.182;7.890;2023-04-12T06:06:46;7.70;99.90
21648;DHT22;10985;54.182;7.890;2023-04-12T06:09:12;7.70;99.90
21648;DHT22;10985;54.182;7.890;2023-04-12T06:11:39;7.80;99.90
21648;DHT22;10985;54.182;7.890;2023-04-12T06:14:05;7.80;99.90
21648;DHT22;10985;54.182;7.890;2023-04-12T06:16:30;7.80;99.90
21648;DHT22;10985;54.182;7.890;2023-04-12T06:18:55;7.90;99.90
21648;DHT22;10985;54.182;7.890;2023-04-12T06:21:22;7.80;99.90
21648;DHT22;10985;54.182;7.890;2023-04-12T06:23:47;7.90;99.90
21648;DHT22;10985;54.182;7.890;2023-04-12T06:26:14;7.90;99.90
21648;DHT22;10985;54.182;7.890;2023-04-12T06:28:39;7.90;99.90
21648;DHT22;10985;54.182;7.890;2023-04-12T06:31:05;7.90;99.90
21648;DHT22;10985;54.182;7.890;2023-04-12T06:33:31;7.90;99.90
21648;DHT22;10985;54.182;7.890;2023-04-12T06:35:57;7.90;99.90
21648;DHT22;10985;54.182;7.890;2023-04-12T06:38:22;7.90;99.90
21648;DHT22;10985;54.182;7.890;2023-04-12T06:40:48;7.90;99.90
21648;DHT22;10985;54.182;7.890;2023-04-12T06:43:16;7.90;99.90
21648;DHT22;10985;54.182;7.890;2023-04-12T06:45:43;7.90;99.90
21648;DHT22;10985;54.182;7.890;2023-04-12T06:48:09;7.90;99.90
21648;DHT22;10985;54.182;7.890;2023-04-12T06:50:34;7.90;99.90
21648;DHT22;10985;54.182;7.890;2023-04-12T06:53:00;7.90;99.90
21648;DHT22;10985;54.182;7.890;2023-04-12T06:55:25;7.90;99.90
21648;DHT22;10985;54.182;7.890;2023-04-12T06:57:53;7.90;99.90
21648;DHT22;10985;54.182;7.890;2023-04-12T07:00:20;7.90;99.90
21648;DHT22;10985;54.182;7.890;2023-04-12T07:02:45;7.90;99.90
21648;DHT22;10985;54.182;7.890;2023-04-12T07:05:11;8.00;99.90
21648;DHT22;10985;54.182;7.890;2023-04-12T07:07:37;8.00;99.90
21648;DHT22;10985;54.182;7.890;2023-04-12T07:10:02;8.00;99.90
21648;DHT22;10985;54.182;7.890;2023-04-12T07:12:28;8.00;99.90
21648;DHT22;10985;54.182;7.890;2023-04-12T07:14:54;8.00;99.90
21648;DHT22;10985;54.182;7.890;2023-04-12T07:17:20;8.00;99.90
21648;DHT22;10985;54.182;7.890;2023-04-12T07:19:45;8.00;99.90
21648;DHT22;10985;54.182;7.890;2023-04-12T07:22:12;8.00;99.90
21648;DHT22;10985;54.182;7.890;2023-04-12T07:24:37;8.00;99.90
21648;DHT22;10985;54.182;7.890;2023-04-12T07:27:03;8.00;99.90
21648;DHT22;10985;54.182;7.890;2023-04-12T07:29:28;8.00;99.90
21648;DHT22;10985;54.182;7.890;2023-04-12T07:31:54;8.00;99.90
21648;DHT22;10985;54.182;7.890;2023-04-12T07:34:19;8.00;99.90
21648;DHT22;10985;54.182;7.890;2023-04-12T07:36:45;7.90;99.90
21648;DHT22;10985;54.182;7.890;2023-04-12T07:39:11;7.90;99.90
21648;DHT22;10985;54.182;7.890;2023-04-12T07:41:37;7.90;99.90
21648;DHT22;10985;54.182;7.890;2023-04-12T07:44:03;8.00;99.90
21648;DHT22;10985;54.182;7.890;2023-04-12T07:46:29;7.90;99.90
21648;DHT22;10985;54.182;7.890;2023-04-12T07:48:55;7.90;99.90
21648;DHT22;10985;54.182;7.890;2023-04-12T07:51:20;7.90;99.90
21648;DHT22;10985;54.182;7.890;2023-04-12T07:53:46;7.90;99.90
21648;DHT22;10985;54.182;7.890;2023-04-12T07:56:13;7.90;99.90
21648;DHT22;10985;54.182;7.890;2023-04-12T07:58:38;7.90;99.90
21648;DHT22;10985;54.182;7.890;2023-04-12T08:01:04;7.90;99.90
21648;DHT22;10985;54.182;7.890;2023-04-12T08:03:31;7.90;99.90
21648;DHT22;10985;54.182;7.890;2023-04-12T08:05:57;7.90;99.90
21648;DHT22;10985;54.182;7.890;2023-04-12T08:08:22;7.80;99.90
21648;DHT22;10985;54.182;7.890;2023-04-12T08:10:49;7.80;99.90
21648;DHT22;10985;54.182;7.890;2023-04-12T08:13:15;7.80;99.90
21648;DHT22;10985;54.182;7.890;2023-04-12T08:15:40;7.80;99.90
21648;DHT22;10985;54.182;7.890;2023-04-12T08:18:08;7.80;99.90
21648;DHT22;10985;54.182;7.890;2023-04-12T08:20:34;7.80;99.90
21648;DHT22;10985;54.182;7.890;2023-04-12T08:22:59;7.70;99.90
21648;DHT22;10985;54.182;7.890;2023-04-12T08:25:25;7.70;99.90
21648;DHT22;10985;54.182;7.890;2023-04-12T08:27:51;7.70;99.90
21648;DHT22;10985;54.182;7.890;2023-04-12T08:30:17;7.70;99.90
21648;DHT22;10985;54.182;7.890;2023-04-12T08:32:43;7.70;99.90
21648;DHT22;10985;54.182;7.890;2023-04-12T08:35:09;7.70;99.90
21648;DHT22;10985;54.182;7.890;2023-04-12T08:37:34;7.70;99.90
21648;DHT22;10985;54.182;7.890;2023-04-12T08:40:03;7.70;99.90
21648;DHT22;10985;54.182;7.890;2023-04-12T08:42:30;7.70;99.90
21648;DHT22;10985;54.182;7.890;2023-04-12T08:44:57;7.70;99.90
21648;DHT22;10985;54.182;7.890;2023-04-12T08:47:22;7.70;99.90
21648;DHT22;10985;54.182;7.890;2023-04-12T08:49:48;7.70;99.90
21648;DHT22;10985;54.182;7.890;2023-04-12T08:52:13;7.70;99.90
21648;DHT22;10985;54.182;7.890;2023-04-12T08:54:40;7.70;99.90
21648;DHT22;10985;54.182;7.890;2023-04-12T08:57:07;7.70;99.90
21648;DHT22;10985;54.182;7.890;2023-04-12T08:59:37;7.70;99.90
21648;DHT22;10985;54.182;7.890;2023-04-12T09:02:03;7.60;99.90
21648;DHT22;10985;54.182;7.890;2023-04-12T09:04:29;7.60;99.90
21648;DHT22;10985;54.182;7.890;2023-04-12T09:06:55;7.60;99.90
21648;DHT22;10985;54.182;7.890;2023-04-12T09:09:48;7.60;99.90
21648;DHT22;10985;54.182;7.890;2023-04-12T09:12:15;7.50;99.90
21648;DHT22;10985;54.182;7.890;2023-04-12T09:14:42;7.50;99.90
21648;DHT22;10985;54.182;7.890;2023-04-12T09:17:25;7.50;99.90
21648;DHT22;10985;54.182;7.890;2023-04-12T09:19:51;7.50;99.90
21648;DHT22;10985;54.182;7.890;2023-04-12T09:22:18;7.50;99.90
21648;DHT22;10985;54.182;7.890;2023-04-12T09:24:47;7.40;99.90
21648;DHT22;10985;54.182;7.890;2023-04-12T09:27:14;7.40;99.90
21648;DHT22;10985;54.182;7.890;2023-04-12T09:29:39;7.40;99.90
21648;DHT22;10985;54.182;7.890;2023-04-12T09:32:07;7.40;99.90
21648;DHT22;10985;54.182;7.890;2023-04-12T09:34:33;7.40;99.90
21648;DHT22;10985;54.182;7.890;2023-04-12T09:37:11;7.40;99.90
21648;DHT22;10985;54.182;7.890;2023-04-12T09:39:37;7.40;99.90
21648;DHT22;10985;54.182;7.890;2023-04-12T09:42:04;7.40;99.90
21648;DHT22;10985;54.182;7.890;2023-04-12T09:44:29;7.40;99.90
21648;DHT22;10985;54.182;7.890;2023-04-12T09:46:55;7.30;99.90
21648;DHT22;10985;54.182;7.890;2023-04-12T09:49:38;7.30;99.90
21648;DHT22;10985;54.182;7.890;2023-04-12T09:52:05;7.30;99.90
21648;DHT22;10985;54.182;7.890;2023-04-12T09:54:36;7.30;99.90
21648;DHT22;10985;54.182;7.890;2023-04-12T09:57:05;7.30;99.90
21648;DHT22;10985;54.182;7.890;2023-04-12T09:59:37;7.40;99.90
21648;DHT22;10985;54.182;7.890;2023-04-12T10:02:15;7.40;99.90
21648;DHT22;10985;54.182;7.890;2023-04-12T10:04:42;7.40;99.90
21648;DHT22;10985;54.182;7.890;2023-04-12T10:07:08;7.40;99.90
21648;DHT22;10985;54.182;7.890;2023-04-12T10:09:36;7.40;99.90
21648;DHT22;10985;54.182;7.890;2023-04-12T10:12:02;7.40;99.90
21648;DHT22;10985;54.182;7.890;2023-04-12T10:14:28;7.40;99.90
21648;DHT22;10985;54.182;7.890;2023-04-12T10:16:59;7.40;99.90
21648;DHT22;10985;54.182;7.890;2023-04-12T10:19:26;7.40;99.90
21648;DHT22;10985;54.182;7.890;2023-04-12T10:21:54;7.40;99.90
21648;DHT22;10985;54.182;7.890;2023-04-12T10:24:23;7.50;99.90
21648;DHT22;10985;54.182;7.890;2023-04-12T10:26:50;7.50;99.90
21648;DHT22;10985;54.182;7.890;2023-04-12T10:29:26;7.60;99.90
21648;DHT22;10985;54.182;7.890;2023-04-12T10:31:56;7.60;99.90
21648;DHT22;10985;54.182;7.890;2023-04-12T10:34:30;7.60;99.90
21648;DHT22;10985;54.182;7.890;2023-04-12T10:36:57;7.70;99.90
21648;DHT22;10985;54.182;7.890;2023-04-12T10:39:43;7.70;99.90
21648;DHT22;10985;54.182;7.890;2023-04-12T10:42:16;7.70;99.90
21648;DHT22;10985;54.182;7.890;2023-04-12T10:44:43;7.70;99.90
21648;DHT22;10985;54.182;7.890;2023-04-12T10:47:09;7.80;99.90
21648;DHT22;10985;54.182;7.890;2023-04-12T10:49:35;7.80;99.90
21648;DHT22;10985;54.182;7.890;2023-04-12T10:54:34;7.70;99.90
21648;DHT22;10985;54.182;7.890;2023-04-12T10:57:00;7.70;99.90
21648;DHT22;10985;54.182;7.890;2023-04-12T11:02:20;7.70;99.90
21648;DHT22;10985;54.182;7.890;2023-04-12T11:05:05;7.80;99.90
21648;DHT22;10985;54.182;7.890;2023-04-12T11:07:40;7.70;99.90
21648;DHT22;10985;54.182;7.890;2023-04-12T11:10:16;7.80;99.90
21648;DHT22;10985;54.182;7.890;2023-04-12T11:12:49;7.80;99.90
21648;DHT22;10985;54.182;7.890;2023-04-12T11:15:17;7.80;99.90
21648;DHT22;10985;54.182;7.890;2023-04-12T11:17:52;7.70;99.90
21648;DHT22;10985;54.182;7.890;2023-04-12T11:20:19;7.80;99.90
21648;DHT22;10985;54.182;7.890;2023-04-12T11:22:44;7.80;99.90
21648;DHT22;10985;54.182;7.890;2023-04-12T11:25:15;7.80;99.90
21648;DHT22;10985;54.182;7.890;2023-04-12T11:27:48;7.80;99.90
21648;DHT22;10985;54.182;7.890;2023-04-12T11:30:15;7.90;99.90
21648;DHT22;10985;54.182;7.890;2023-04-12T11:32:44;7.90;99.90
21648;DHT22;10985;54.182;7.890;2023-04-12T11:35:10;7.90;99.90
21648;DHT22;10985;54.182;7.890;2023-04-12T11:37:35;7.90;99.90
21648;DHT22;10985;54.182;7.890;2023-04-12T11:40:02;7.90;99.90
21648;DHT22;10985;54.182;7.890;2023-04-12T11:42:30;7.90;99.90
21648;DHT22;10985;54.182;7.890;2023-04-12T11:44:56;8.00;99.90
21648;DHT22;10985;54.182;7.890;2023-04-12T11:47:23;8.00;99.90
21648;DHT22;10985;54.182;7.890;2023-04-12T11:49:51;8.00;99.90
21648;DHT22;10985;54.182;7.890;2023-04-12T11:52:18;8.00;99.90
21648;DHT22;10985;54.182;7.890;2023-04-12T11:54:48;8.00;99.90
21648;DHT22;10985;54.182;7.890;2023-04-12T11:57:16;8.00;99.90
21648;DHT22;10985;54.182;7.890;2023-04-12T11:59:44;8.00;99.90
21648;DHT22;10985;54.182;7.890;2023-04-12T12:02:10;8.00;99.90
21648;DHT22;10985;54.182;7.890;2023-04-12T12:04:36;8.00;99.90
21648;DHT22;10985;54.182;7.890;2023-04-12T12:07:03;8.00;99.90
21648;DHT22;10985;54.182;7.890;2023-04-12T12:09:28;8.00;99.90
21648;DHT22;10985;54.182;7.890;2023-04-12T12:11:55;8.10;99.90
21648;DHT22;10985;54.182;7.890;2023-04-12T12:14:22;8.10;99.90
21648;DHT22;10985;54.182;7.890;2023-04-12T12:16:56;8.10;99.90
21648;DHT22;10985;54.182;7.890;2023-04-12T12:19:27;8.20;99.90
21648;DHT22;10985;54.182;7.890;2023-04-12T12:21:53;8.20;99.90
21648;DHT22;10985;54.182;7.890;2023-04-12T12:24:20;8.20;99.90
21648;DHT22;10985;54.182;7.890;2023-04-12T12:26:48;8.20;99.90
21648;DHT22;10985;54.182;7.890;2023-04-12T12:29:18;8.20;99.90
21648;DHT22;10985;54.182;7.890;2023-04-12T12:31:46;8.30;99.90
21648;DHT22;10985;54.182;7.890;2023-04-12T12:34:13;8.30;99.90
21648;DHT22;10985;54.182;7.890;2023-04-12T12:36:43;8.30;99.90
21648;DHT22;10985;54.182;7.890;2023-04-12T12:39:18;8.30;99.90
21648;DHT22;10985;54.182;7.890;2023-04-12T12:41:55;8.40;99.90
21648;DHT22;10985;54.182;7.890;2023-04-12T12:44:24;8.40;99.90
21648;DHT22;10985;54.182;7.890;2023-04-12T12:46:50;8.50;99.90
21648;DHT22;10985;54.182;7.890;2023-04-12T12:49:16;8.50;99.90
21648;DHT22;10985;54.182;7.890;2023-04-12T12:51:43;8.60;99.90
21648;DHT22;10985;54.182;7.890;2023-04-12T12:54:08;8.70;99.90
21648;DHT22;10985;54.182;7.890;2023-04-12T12:56:34;8.80;99.90
21648;DHT22;10985;54.182;7.890;2023-04-12T12:59:00;8.90;99.90
21648;DHT22;10985;54.182;7.890;2023-04-12T13:01:25;9.10;99.90
21648;DHT22;10985;54.182;7.890;2023-04-12T13:03:52;9.20;99.90
21648;DHT22;10985;54.182;7.890;2023-04-12T13:06:17;9.30;99.90
21648;DHT22;10985;54.182;7.890;2023-04-12T13:08:43;9.30;99.90
21648;DHT22;10985;54.182;7.890;2023-04-12T13:11:08;9.40;99.90
21648;DHT22;10985;54.182;7.890;2023-04-12T13:13:34;9.40;99.90
21648;DHT22;10985;54.182;7.890;2023-04-12T13:15:59;9.40;99.90
21648;DHT22;10985;54.182;7.890;2023-04-12T13:18:25;9.50;99.90
21648;DHT22;10985;54.182;7.890;2023-04-12T13:20:51;9.50;99.90
21648;DHT22;10985;54.182;7.890;2023-04-12T13:23:16;9.50;99.90
21648;DHT22;10985;54.182;7.890;2023-04-12T13:25:42;9.50;99.90
21648;DHT22;10985;54.182;7.890;2023-04-12T13:28:07;9.50;99.90
21648;DHT22;10985;54.182;7.890;2023-04-12T13:30:33;9.50;99.90
21648;DHT22;10985;54.182;7.890;2023-04-12T13:32:58;9.50;99.90
21648;DHT22;10985;54.182;7.890;2023-04-12T13:35:24;9.40;99.90
21648;DHT22;10985;54.182;7.890;2023-04-12T13:37:49;9.50;99.90
21648;DHT22;10985;54.182;7.890;2023-04-12T13:40:14;9.40;99.90
21648;DHT22;10985;54.182;7.890;2023-04-12T13:42:40;9.40;99.90
21648;DHT22;10985;54.182;7.890;2023-04-12T13:45:06;9.40;99.90
21648;DHT22;10985;54.182;7.890;2023-04-12T13:47:32;9.40;99.90
21648;DHT22;10985;54.182;7.890;2023-04-12T13:50:01;9.50;99.90
21648;DHT22;10985;54.182;7.890;2023-04-12T13:52:26;9.60;99.90
21648;DHT22;10985;54.182;7.890;2023-04-12T13:54:52;9.60;99.90
21648;DHT22;10985;54.182;7.890;2023-04-12T13:57:17;9.60;99.90
21648;DHT22;10985;54.182;7.890;2023-04-12T13:59:43;9.70;99.90
21648;DHT22;10985;54.182;7.890;2023-04-12T14:02:08;9.70;99.90
21648;DHT22;10985;54.182;7.890;2023-04-12T14:04:34;9.70;99.90
21648;DHT22;10985;54.182;7.890;2023-04-12T14:07:00;9.80;99.90
21648;DHT22;10985;54.182;7.890;2023-04-12T14:09:30;9.80;99.90
21648;DHT22;10985;54.182;7.890;2023-04-12T14:11:57;9.90;99.90
21648;DHT22;10985;54.182;7.890;2023-04-12T14:14:24;9.90;99.90
21648;DHT22;10985;54.182;7.890;2023-04-12T14:16:50;10.10;99.90
21648;DHT22;10985;54.182;7.890;2023-04-12T14:19:18;10.10;99.90
21648;DHT22;10985;54.182;7.890;2023-04-12T14:21:43;10.20;99.90
21648;DHT22;10985;54.182;7.890;2023-04-12T14:24:09;10.20;99.90
21648;DHT22;10985;54.182;7.890;2023-04-12T14:26:35;10.30;99.90
21648;DHT22;10985;54.182;7.890;2023-04-12T14:29:00;10.40;99.90
21648;DHT22;10985;54.182;7.890;2023-04-12T14:31:26;10.50;99.90
21648;DHT22;10985;54.182;7.890;2023-04-12T14:33:52;10.50;99.90
21648;DHT22;10985;54.182;7.890;2023-04-12T14:36:18;10.60;99.90
21648;DHT22;10985;54.182;7.890;2023-04-12T14:38:43;10.60;99.90
21648;DHT22;10985;54.182;7.890;2023-04-12T14:41:09;10.70;99.90
21648;DHT22;10985;54.182;7.890;2023-04-12T14:43:35;10.70;99.90
21648;DHT22;10985;54.182;7.890;2023-04-12T14:46:01;10.80;99.90
21648;DHT22;10985;54.182;7.890;2023-04-12T14:48:26;10.80;99.90
21648;DHT22;10985;54.182;7.890;2023-04-12T14:50:52;10.80;99.90
21648;DHT22;10985;54.182;7.890;2023-04-12T14:53:19;10.90;99.90
21648;DHT22;10985;54.182;7.890;2023-04-12T14:55:45;11.00;99.90
21648;DHT22;10985;54.182;7.890;2023-04-12T14:58:11;11.00;99.90
21648;DHT22;10985;54.182;7.890;2023-04-12T15:00:37;11.10;99.90
21648;DHT22;10985;54.182;7.890;2023-04-12T15:03:02;11.00;99.90
21648;DHT22;10985;54.182;7.890;2023-04-12T15:05:29;11.10;99.90
21648;DHT22;10985;54.182;7.890;2023-04-12T15:07:55;11.10;99.90
21648;DHT22;10985;54.182;7.890;2023-04-12T15:10:21;11.10;99.90
21648;DHT22;10985;54.182;7.890;2023-04-12T15:12:47;11.10;99.90
21648;DHT22;10985;54.182;7.890;2023-04-12T15:15:12;11.00;99.90
21648;DHT22;10985;54.182;7.890;2023-04-12T15:17:38;11.00;99.90
21648;DHT22;10985;54.182;7.890;2023-04-12T15:20:04;11.00;99.90
21648;DHT22;10985;54.182;7.890;2023-04-12T15:22:39;11.00;99.90
21648;DHT22;10985;54.182;7.890;2023-04-12T15:25:05;10.90;99.90
21648;DHT22;10985;54.182;7.890;2023-04-12T15:27:31;10.90;99.90
21648;DHT22;10985;54.182;7.890;2023-04-12T15:29:58;10.90;99.90
21648;DHT22;10985;54.182;7.890;2023-04-12T15:32:24;10.90;99.90
21648;DHT22;10985;54.182;7.890;2023-04-12T15:34:53;10.80;99.90
21648;DHT22;10985;54.182;7.890;2023-04-12T15:37:20;10.80;99.90
21648;DHT22;10985;54.182;7.890;2023-04-12T15:39:46;10.80;99.90
21648;DHT22;10985;54.182;7.890;2023-04-12T15:42:11;10.70;99.90
21648;DHT22;10985;54.182;7.890;2023-04-12T15:44:37;10.60;99.90
21648;DHT22;10985;54.182;7.890;2023-04-12T15:47:02;10.70;99.90
21648;DHT22;10985;54.182;7.890;2023-04-12T15:49:28;10.60;99.90
21648;DHT22;10985;54.182;7.890;2023-04-12T15:51:54;10.50;99.90
21648;DHT22;10985;54.182;7.890;2023-04-12T15:54:22;10.50;99.90
21648;DHT22;10985;54.182;7.890;2023-04-12T15:56:48;10.50;99.90
21648;DHT22;10985;54.182;7.890;2023-04-12T15:59:15;10.40;99.90